Time;durP1;ratioP1;P1;durP2;ratioP2;P2;SDS_P1;SDS_P2;PMS_P1;PMS_P2;Temp;Humidity;BMP_temperature;BMP_pressure;BME280_temperature;BME280_humidity;BME280_pressure;Samples;Min_cycle;Max_cycle;Signal;HPM_P1;HPM_P2
2021/08/22 00:01:21;;;;;;;6.10;4.00;;;;;;;25.48;38.51;99759.25;5092523;28;20031;-73
2021/08/22 00:03:46;;;;;;;6.05;4.65;;;;;;;25.43;39.07;99747.63;5092448;28;20055;-74
2021/08/22 00:06:12;;;;;;;5.25;3.85;;;;;;;25.27;39.02;99723.31;5074511;28;20032;-73
2021/08/22 00:08:39;;;;;;;5.85;4.63;;;;;;;25.01;38.82;99700.84;5074300;28;20016;-74
2021/08/22 00:11:04;;;;;;;5.63;4.70;;;;;;;25.30;39.22;99751.69;5092456;28;20035;-74
2021/08/22 00:13:29;;;;;;;4.93;4.15;;;;;;;25.18;39.30;99749.22;5092466;28;20024;-74
2021/08/22 00:15:55;;;;;;;9.10;4.45;;;;;;;25.09;39.52;99742.72;5074028;28;20047;-74
2021/08/22 00:18:20;;;;;;;6.18;4.55;;;;;;;24.92;39.57;99734.81;5092028;28;20097;-73
2021/08/22 00:20:46;;;;;;;5.82;4.43;;;;;;;24.96;39.67;99744.03;5091963;28;20024;-74
2021/08/22 00:23:11;;;;;;;6.22;4.82;;;;;;;24.93;39.80;99744.56;5092203;28;20024;-74
2021/08/22 00:25:36;;;;;;;6.85;4.70;;;;;;;24.91;39.81;99737.78;5092182;28;20028;-74
2021/08/22 00:28:02;;;;;;;6.22;4.47;;;;;;;24.88;39.81;99747.25;5092200;28;20522;-74
2021/08/22 00:30:27;;;;;;;5.70;4.63;;;;;;;24.81;39.71;99741.28;5092085;28;20396;-74
2021/08/22 00:32:53;;;;;;;6.82;4.70;;;;;;;24.44;40.10;99697.41;5073742;28;20039;-74
2021/08/22 00:35:18;;;;;;;5.35;4.55;;;;;;;24.54;40.22;99727.97;5092133;28;20150;-73
2021/08/22 00:37:44;;;;;;;5.43;4.65;;;;;;;24.59;40.49;99744.19;5092074;28;20032;-74
2021/08/22 00:40:09;;;;;;;4.97;4.47;;;;;;;24.58;40.48;99744.47;5091926;28;20020;-74
2021/08/22 00:42:36;;;;;;;5.40;4.75;;;;;;;24.53;40.52;99739.84;5092078;28;20476;-74
2021/08/22 00:45:04;;;;;;;4.90;4.43;;;;;;;24.32;40.69;99703.84;5091880;28;20032;-74
2021/08/22 00:47:30;;;;;;;6.60;4.97;;;;;;;24.45;40.67;99732.25;5091832;28;20404;-73
2021/08/22 00:49:56;;;;;;;5.40;4.90;;;;;;;24.44;40.64;99738.72;5073492;28;20035;-73
2021/08/22 00:52:22;;;;;;;6.28;4.85;;;;;;;24.20;40.68;99697.03;5091592;28;20020;-74
2021/08/22 00:54:48;;;;;;;6.15;4.60;;;;;;;24.52;40.72;99740.09;5073591;28;20048;-73
2021/08/22 00:57:14;;;;;;;5.70;4.47;;;;;;;24.53;40.78;99739.84;5091468;28;20101;-74
2021/08/22 00:59:43;;;;;;;6.95;4.47;;;;;;;24.48;40.92;99729.00;5091477;28;20129;-74
2021/08/22 01:02:29;;;;;;;6.90;4.82;;;;;;;24.57;40.73;99745.53;5073405;28;20127;-74
2021/08/22 01:05:10;;;;;;;7.10;4.78;;;;;;;24.56;41.20;99749.31;5091212;28;20086;-74
2021/08/22 01:07:59;;;;;;;6.07;4.70;;;;;;;24.58;41.13;99749.88;5091361;28;20477;-73
2021/08/22 01:10:26;;;;;;;5.55;4.57;;;;;;;24.53;40.84;99742.56;5091503;28;20489;-74
2021/08/22 01:13:12;;;;;;;5.43;4.93;;;;;;;24.46;41.05;99739.25;5091550;28;20028;-74
2021/08/22 01:15:41;;;;;;;5.85;4.80;;;;;;;24.42;41.08;99737.34;5091334;28;20024;-74
2021/08/22 01:18:12;;;;;;;5.40;4.40;;;;;;;24.03;41.32;99679.16;5091272;28;20031;-74
2021/08/22 01:20:56;;;;;;;6.50;4.65;;;;;;;24.41;41.30;99744.63;5091218;28;20111;-73
2021/08/22 01:23:23;;;;;;;5.10;4.65;;;;;;;24.37;41.21;99738.16;5091465;28;20028;-78
2021/08/22 01:25:50;;;;;;;8.23;4.68;;;;;;;24.02;41.27;99680.22;5091508;28;20089;-79
2021/08/22 01:28:15;;;;;;;5.75;4.53;;;;;;;24.30;41.52;99735.69;5091557;28;20477;-79
2021/08/22 01:30:45;;;;;;;6.55;4.82;;;;;;;24.35;41.26;99748.41;5091383;28;20161;-79
2021/08/22 01:33:12;;;;;;;6.72;4.80;;;;;;;24.33;41.64;99745.16;5091377;28;20586;-79
2021/08/22 01:35:38;;;;;;;8.23;4.82;;;;;;;24.29;41.65;99738.66;5091212;28;20535;-78
2021/08/22 01:38:05;;;;;;;8.25;4.90;;;;;;;24.16;41.69;99749.88;5090987;28;20035;-79
2021/08/22 01:40:31;;;;;;;8.18;5.20;;;;;;;23.85;41.94;99709.28;5090872;28;20028;-79
2021/08/22 01:42:58;;;;;;;5.15;4.65;;;;;;;23.95;42.13;99732.78;5090935;28;20103;-78
2021/08/22 01:45:24;;;;;;;6.78;4.53;;;;;;;23.72;42.20;99715.09;5091084;28;20028;-79
2021/08/22 01:47:50;;;;;;;6.72;4.60;;;;;;;23.68;42.19;99712.09;5090978;28;20106;-79
2021/08/22 01:50:22;;;;;;;5.07;4.47;;;;;;;23.79;42.23;99737.28;5091103;28;20030;-79
2021/08/22 01:52:52;;;;;;;6.57;4.78;;;;;;;23.82;42.35;99747.53;5091167;28;20102;-78
2021/08/22 01:55:17;;;;;;;5.97;4.60;;;;;;;23.66;42.34;99743.09;5091116;28;20028;-78
2021/08/22 01:57:44;;;;;;;8.07;5.18;;;;;;;23.64;42.63;99747.91;5091099;28;20106;-79
2021/08/22 02:00:11;;;;;;;6.10;4.65;;;;;;;23.18;42.72;99682.06;5090897;28;20408;-79
2021/08/22 02:02:47;;;;;;;5.32;4.53;;;;;;;23.24;43.09;99699.88;5091069;28;20035;-79
2021/08/22 02:05:14;;;;;;;8.00;5.32;;;;;;;23.41;43.02;99736.41;5091010;28;20032;-79
2021/08/22 02:07:40;;;;;;;7.57;4.82;;;;;;;22.86;43.24;99660.47;5091003;28;20055;-78
2021/08/22 02:10:14;;;;;;;5.50;4.70;;;;;;;23.02;43.60;99691.84;5072794;28;20105;-79
2021/08/22 02:12:40;;;;;;;6.88;4.53;;;;;;;22.80;43.45;99671.19;5090989;28;20501;-79
2021/08/22 02:15:09;;;;;;;6.43;5.05;;;;;;;23.23;43.73;99746.75;5091335;28;20570;-78
2021/08/22 02:17:41;;;;;;;9.27;5.03;;;;;;;23.20;43.80;99742.69;5094640;28;20401;-79
2021/08/22 02:20:07;;;;;;;7.75;4.95;;;;;;;22.98;43.85;99714.97;5076315;28;20024;-79
2021/08/22 02:22:34;;;;;;;6.78;5.30;;;;;;;23.12;44.16;99751.22;5094608;28;20031;-78
2021/08/22 02:25:01;;;;;;;5.93;4.75;;;;;;;22.96;44.15;99736.78;5094304;28;20111;-72
2021/08/22 02:27:30;;;;;;;5.93;5.32;;;;;;;22.75;44.44;99713.38;5094220;28;20031;-74
2021/08/22 02:29:56;;;;;;;7.35;4.32;;;;;;;23.01;44.46;99744.09;5094495;28;20047;-74
2021/08/22 02:32:23;;;;;;;5.88;4.95;;;;;;;23.02;44.44;99753.81;5094469;28;20496;-74
2021/08/22 02:34:50;;;;;;;5.20;4.68;;;;;;;22.99;44.58;99754.31;5094136;28;20042;-73
2021/08/22 02:37:16;;;;;;;6.38;4.85;;;;;;;22.95;44.73;99750.50;5094069;28;20085;-74
2021/08/22 02:39:41;;;;;;;7.25;5.05;;;;;;;22.92;44.85;99753.69;5093944;28;20028;-74
2021/08/22 02:42:07;;;;;;;5.80;4.82;;;;;;;22.57;45.17;99706.47;5094279;28;20032;-74
2021/08/22 02:44:33;;;;;;;10.98;5.60;;;;;;;22.60;45.40;99724.78;5094083;28;20063;-73
2021/08/22 02:46:59;;;;;;;7.10;4.78;;;;;;;22.84;45.28;99754.97;5094131;28;20020;-74
2021/08/22 02:49:24;;;;;;;7.78;5.38;;;;;;;22.64;45.20;99728.59;5075863;28;20024;-74
2021/08/22 02:51:49;;;;;;;8.00;4.97;;;;;;;22.75;45.33;99748.38;5093833;28;20035;-74
2021/08/22 02:54:15;;;;;;;8.27;4.97;;;;;;;22.46;45.51;99700.16;5093731;28;20032;-74
2021/08/22 02:56:40;;;;;;;6.00;5.15;;;;;;;22.67;45.76;99732.66;5093826;28;20409;-74
2021/08/22 02:59:05;;;;;;;5.13;4.55;;;;;;;22.66;46.02;99734.56;5093606;28;20492;-73
2021/08/22 03:01:31;;;;;;;6.90;4.90;;;;;;;22.57;45.97;99738.75;5093854;28;20157;-74
2021/08/22 03:03:57;;;;;;;5.85;5.20;;;;;;;22.61;46.25;99752.53;5093862;28;20538;-74
2021/08/22 03:06:22;;;;;;;6.10;5.20;;;;;;;22.29;46.93;99709.34;5093818;28;20030;-73
2021/08/22 03:08:47;;;;;;;6.45;5.60;;;;;;;22.16;46.54;99700.56;5093553;28;20099;-74
2021/08/22 03:11:17;;;;;;;5.82;4.88;;;;;;;22.47;46.67;99750.22;5093573;28;20028;-74
2021/08/22 03:13:42;;;;;;;8.90;5.45;;;;;;;22.23;46.85;99713.03;5093616;28;20093;-74
2021/08/22 03:16:07;;;;;;;5.63;5.07;;;;;;;22.41;46.81;99753.09;5075298;28;20481;-73
2021/08/22 03:18:33;;;;;;;6.28;5.28;;;;;;;22.25;46.95;99730.53;5093301;28;20059;-73
2021/08/22 03:20:58;;;;;;;7.25;5.35;;;;;;;22.14;46.92;99726.09;5093203;28;20016;-74
2021/08/22 03:23:23;;;;;;;5.85;5.25;;;;;;;22.38;47.20;99761.66;5093190;28;20058;-73
2021/08/22 03:25:49;;;;;;;6.35;5.75;;;;;;;22.37;47.25;99754.66;5092924;28;20047;-74
2021/08/22 03:28:14;;;;;;;8.75;5.80;;;;;;;22.00;47.18;99703.28;5093256;28;20032;-74
2021/08/22 03:30:39;;;;;;;7.70;5.78;;;;;;;22.35;47.16;99760.28;5093214;28;20103;-74
2021/08/22 03:33:05;;;;;;;9.57;5.57;;;;;;;22.37;47.14;99755.47;5093084;28;20027;-73
2021/08/22 03:35:30;;;;;;;7.20;5.35;;;;;;;22.02;47.04;99693.91;5093117;28;20024;-74
2021/08/22 03:37:56;;;;;;;6.05;5.00;;;;;;;22.08;47.10;99706.38;5093169;28;20064;-74
2021/08/22 03:40:21;;;;;;;6.68;5.97;;;;;;;22.40;47.08;99748.78;5093050;28;20034;-74
2021/08/22 03:42:46;;;;;;;6.75;6.07;;;;;;;22.40;46.93;99754.97;5092962;28;20023;-73
2021/08/22 03:45:12;;;;;;;7.13;5.85;;;;;;;22.41;47.24;99770.03;5092759;28;20531;-74
2021/08/22 03:47:38;;;;;;;8.20;5.55;;;;;;;22.43;47.06;99772.50;5092664;28;20027;-74
2021/08/22 03:50:04;;;;;;;7.65;6.10;;;;;;;22.37;47.06;99763.53;5092843;28;20012;-74
2021/08/22 03:52:29;;;;;;;8.20;5.90;;;;;;;22.10;47.24;99700.75;5092809;28;20028;-74
2021/08/22 03:54:55;;;;;;;7.35;5.65;;;;;;;22.34;47.43;99739.81;5092745;28;20055;-74
2021/08/22 03:57:20;;;;;;;6.82;5.60;;;;;;;22.41;47.50;99755.78;5092698;28;20477;-73
2021/08/22 03:59:45;;;;;;;6.70;5.70;;;;;;;22.34;47.68;99750.59;5074465;28;20489;-73
2021/08/22 04:02:11;;;;;;;7.03;6.15;;;;;;;22.37;47.65;99754.66;5092688;28;20016;-73
2021/08/22 04:04:36;;;;;;;7.65;5.68;;;;;;;22.31;47.82;99737.63;5092564;28;20508;-73
2021/08/22 04:07:03;;;;;;;6.40;5.80;;;;;;;22.44;47.74;99761.47;5092330;28;20016;-73
2021/08/22 04:09:30;;;;;;;9.00;6.20;;;;;;;22.36;47.81;99742.28;5092310;28;20016;-75
2021/08/22 04:11:57;;;;;;;10.00;6.05;;;;;;;22.24;47.88;99733.47;5092461;28;20031;-73
2021/08/22 04:14:23;;;;;;;7.82;5.63;;;;;;;22.43;48.15;99761.72;5092357;28;20032;-73
2021/08/22 04:16:49;;;;;;;6.78;6.00;;;;;;;22.25;48.09;99732.41;5092436;28;20108;-75
2021/08/22 04:19:15;;;;;;;9.38;5.70;;;;;;;22.29;48.19;99753.19;5092263;28;20502;-75
2021/08/22 04:21:41;;;;;;;9.38;6.38;;;;;;;22.06;48.29;99689.69;5092127;28;20114;-75
2021/08/22 04:24:07;;;;;;;7.40;5.93;;;;;;;22.11;48.18;99703.19;5092148;28;20028;-75
2021/08/22 04:26:33;;;;;;;7.57;5.72;;;;;;;22.46;48.31;99769.28;5091999;28;20468;-74
2021/08/22 04:28:59;;;;;;;6.50;5.82;;;;;;;22.37;48.41;99754.66;5092210;28;20055;-75
2021/08/22 04:31:25;;;;;;;7.47;5.47;;;;;;;22.44;48.49;99779.50;5092056;28;20036;-74
2021/08/22 04:33:50;;;;;;;8.18;5.60;;;;;;;22.47;48.61;99779.81;5073596;28;20020;-76
2021/08/22 04:36:16;;;;;;;6.78;5.95;;;;;;;22.42;48.53;99757.41;5092159;28;20488;-74
2021/08/22 04:38:41;;;;;;;6.97;5.75;;;;;;;22.58;48.44;99772.69;5091483;28;20446;-75
2021/08/22 04:41:06;;;;;;;7.68;6.03;;;;;;;22.63;48.40;99775.44;5091906;28;20110;-74
2021/08/22 04:43:32;;;;;;;7.32;6.28;;;;;;;22.17;48.61;99706.75;5091950;28;20161;-74
2021/08/22 04:45:57;;;;;;;7.80;6.13;;;;;;;22.60;48.77;99783.19;5091812;28;20102;-74
2021/08/22 04:48:23;;;;;;;6.47;5.80;;;;;;;22.66;48.80;99774.13;5091818;28;20039;-74
2021/08/22 04:50:48;;;;;;;6.38;5.68;;;;;;;22.58;48.53;99761.09;5091634;28;20048;-73
2021/08/22 04:53:13;;;;;;;7.32;5.95;;;;;;;22.85;48.35;99788.09;5091749;28;20080;-74
2021/08/22 04:55:39;;;;;;;6.88;6.18;;;;;;;22.90;48.17;99791.66;5091904;28;20415;-74
2021/08/22 04:58:04;;;;;;;8.70;5.80;;;;;;;22.66;48.18;99742.63;5091732;28;20035;-74
2021/08/22 05:00:29;;;;;;;8.20;5.70;;;;;;;22.90;48.18;99778.19;5091686;28;20480;-75
2021/08/22 05:02:55;;;;;;;7.78;5.95;;;;;;;22.97;48.06;99786.06;5091574;28;20477;-74
2021/08/22 05:05:21;;;;;;;6.25;5.60;;;;;;;23.13;47.92;99801.34;5091565;28;20024;-74
2021/08/22 05:07:46;;;;;;;11.40;6.40;;;;;;;23.16;47.94;99806.22;5091356;28;20027;-75
2021/08/22 05:10:12;;;;;;;9.73;6.13;;;;;;;23.11;48.00;99808.88;5091485;28;20028;-74
2021/08/22 05:12:37;;;;;;;7.50;5.80;;;;;;;23.06;48.11;99804.25;5091454;28;20100;-74
2021/08/22 05:15:06;;;;;;;8.45;6.00;;;;;;;23.11;48.00;99804.28;5091587;28;20027;-74
2021/08/22 05:17:31;;;;;;;12.15;6.03;;;;;;;22.95;48.22;99783.63;5091433;28;20031;-75
2021/08/22 05:19:57;;;;;;;6.65;5.45;;;;;;;22.94;48.39;99797.34;5091411;28;20028;-75
2021/08/22 05:22:22;;;;;;;7.18;5.35;;;;;;;22.67;48.54;99768.47;5091483;28;20093;-74
2021/08/22 05:24:47;;;;;;;5.78;5.28;;;;;;;22.99;48.64;99798.22;5091460;28;20056;-74
2021/08/22 05:27:13;;;;;;;5.93;5.25;;;;;;;22.79;48.30;99746.81;5090934;28;20035;-75
2021/08/22 05:29:38;;;;;;;6.53;5.93;;;;;;;23.21;48.38;99798.19;5091163;28;20012;-74
2021/08/22 05:32:06;;;;;;;12.25;6.03;;;;;;;23.22;48.09;99789.03;5091148;28;20034;-74
2021/08/22 05:34:31;;;;;;;5.88;5.38;;;;;;;23.34;48.22;99811.25;5091184;28;20111;-75
2021/08/22 05:36:57;;;;;;;8.68;5.47;;;;;;;23.17;48.04;99759.38;5091086;28;20508;-74
2021/08/22 05:39:22;;;;;;;7.53;5.57;;;;;;;23.14;48.21;99749.09;5072885;28;20027;-75
2021/08/22 05:41:48;;;;;;;7.18;5.60;;;;;;;23.54;48.34;99802.53;5091530;28;20028;-75
2021/08/22 05:44:13;;;;;;;7.85;5.63;;;;;;;23.51;48.38;99799.53;5073178;28;20085;-74
2021/08/22 05:46:39;;;;;;;6.95;5.88;;;;;;;23.20;48.26;99748.06;5091242;28;20077;-75
2021/08/22 05:49:04;;;;;;;6.00;5.40;;;;;;;23.57;48.29;99793.16;5091615;28;20093;-75
2021/08/22 05:51:29;;;;;;;6.50;5.28;;;;;;;23.58;48.08;99770.53;5095098;28;20038;-74
2021/08/22 05:53:55;;;;;;;6.93;5.47;;;;;;;23.40;47.77;99723.19;5095170;28;20515;-74
2021/08/22 05:56:20;;;;;;;6.68;5.20;;;;;;;23.74;47.72;99781.16;5095070;28;20028;-75
2021/08/22 05:58:46;;;;;;;5.85;5.10;;;;;;;23.88;47.59;99795.03;5076683;28;20016;-75
2021/08/22 06:01:11;;;;;;;7.03;5.50;;;;;;;24.02;47.20;99803.50;5095009;28;20016;-73
2021/08/22 06:03:37;;;;;;;8.27;5.80;;;;;;;24.08;47.27;99797.06;5094822;28;20070;-74
2021/08/22 06:06:09;;;;;;;5.65;4.78;;;;;;;24.17;47.33;99800.06;5094926;28;20073;-75
2021/08/22 06:08:35;;;;;;;7.93;5.93;;;;;;;24.07;46.87;99773.84;5095141;28;20458;-74
2021/08/22 06:11:01;;;;;;;7.30;5.88;;;;;;;24.17;46.82;99779.31;5076542;28;20051;-75
2021/08/22 06:13:26;;;;;;;6.60;5.70;;;;;;;24.41;46.54;99795.91;5094642;28;20030;-74
2021/08/22 06:15:52;;;;;;;7.65;5.85;;;;;;;24.50;46.33;99802.44;5094550;28;20552;-74
2021/08/22 06:18:18;;;;;;;6.10;5.50;;;;;;;24.49;46.17;99808.91;5094259;28;20516;-75
2021/08/22 06:20:46;;;;;;;6.10;5.50;;;;;;;24.59;46.02;99803.59;5094243;28;20111;-74
2021/08/22 06:23:12;;;;;;;11.35;6.80;;;;;;;24.52;45.94;99784.09;5094519;28;20035;-75
2021/08/22 06:25:37;;;;;;;9.70;6.10;;;;;;;24.23;46.06;99729.69;5094344;28;20028;-74
2021/08/22 06:28:03;;;;;;;7.07;5.63;;;;;;;24.87;45.67;99804.22;5094200;28;20451;-75
2021/08/22 06:30:28;;;;;;;6.88;5.95;;;;;;;24.71;45.24;99782.56;5094375;28;20403;-75
2021/08/22 06:32:54;;;;;;;8.50;5.85;;;;;;;24.75;45.39;99774.75;5094246;28;20412;-75
2021/08/22 06:35:19;;;;;;;6.57;5.55;;;;;;;24.61;45.26;99741.22;5076258;28;20672;-75
2021/08/22 06:37:45;;;;;;;8.73;5.88;;;;;;;24.95;45.05;99801.00;5094263;28;20099;-73
2021/08/22 06:40:11;;;;;;;6.00;5.38;;;;;;;24.72;44.98;99759.09;5094177;28;20481;-75
2021/08/22 06:42:36;;;;;;;6.88;5.38;;;;;;;24.83;44.78;99755.34;5094128;28;20031;-75
2021/08/22 06:45:03;;;;;;;6.95;5.28;;;;;;;25.25;44.43;99801.09;5094123;28;20045;-74
2021/08/22 06:47:28;;;;;;;7.65;6.47;;;;;;;25.01;44.28;99756.75;5094036;28;20098;-74
2021/08/22 06:49:54;;;;;;;6.55;5.65;;;;;;;24.92;44.20;99734.81;5093952;28;20055;-74
2021/08/22 06:52:20;;;;;;;6.18;5.28;;;;;;;25.43;44.02;99801.69;5093938;28;20020;-76
2021/08/22 06:54:46;;;;;;;7.35;5.50;;;;;;;25.35;43.69;99784.13;5093973;28;20408;-74
2021/08/22 06:57:12;;;;;;;6.28;5.38;;;;;;;25.57;43.64;99800.88;5093636;28;20019;-75
2021/08/22 06:59:38;;;;;;;6.43;5.82;;;;;;;25.64;43.46;99801.44;5093718;28;20032;-74
2021/08/22 07:02:04;;;;;;;6.63;5.82;;;;;;;25.31;43.33;99745.19;5092658;28;20408;-74
2021/08/22 07:04:29;;;;;;;6.70;5.97;;;;;;;25.55;43.19;99769.78;5093709;28;20024;-75
2021/08/22 07:06:55;;;;;;;5.75;5.13;;;;;;;25.63;43.05;99775.47;5093684;28;20069;-75
2021/08/22 07:09:20;;;;;;;7.57;5.72;;;;;;;25.89;43.28;99802.53;5093474;28;20019;-75
2021/08/22 07:11:46;;;;;;;6.07;5.43;;;;;;;25.69;42.89;99761.97;5093475;28;20020;-74
2021/08/22 07:14:12;;;;;;;5.93;5.32;;;;;;;26.04;43.22;99801.72;5093481;28;20024;-75
2021/08/22 07:16:38;;;;;;;6.18;5.53;;;;;;;26.10;42.78;99808.75;5093357;28;20030;-74
2021/08/22 07:19:03;;;;;;;5.75;5.15;;;;;;;26.15;42.89;99808.72;5075338;28;20032;-74
2021/08/22 07:21:29;;;;;;;6.15;5.45;;;;;;;26.21;42.82;99810.34;5093543;28;20485;-74
2021/08/22 07:23:54;;;;;;;8.15;5.53;;;;;;;26.06;42.48;99769.78;5093279;28;20108;-79
2021/08/22 07:26:20;;;;;;;5.93;5.32;;;;;;;26.24;42.09;99794.38;5093266;28;20484;-79
2021/08/22 07:28:45;;;;;;;7.78;6.00;;;;;;;26.25;41.89;99774.34;5093445;28;20023;-79
2021/08/22 07:31:10;;;;;;;6.80;5.85;;;;;;;26.44;40.88;99804.34;5093221;28;20515;-78
2021/08/22 07:33:36;;;;;;;9.68;6.28;;;;;;;26.46;40.63;99796.75;5093091;28;20028;-78
2021/08/22 07:36:03;;;;;;;8.57;5.57;;;;;;;26.23;40.60;99759.44;5093099;28;20385;-78
2021/08/22 07:38:28;;;;;;;7.20;5.65;;;;;;;26.50;40.34;99789.72;5092955;28;20024;-79
2021/08/22 07:40:54;;;;;;;6.80;6.07;;;;;;;26.51;39.68;99768.84;5093041;28;20450;-78
2021/08/22 07:43:20;;;;;;;6.18;5.47;;;;;;;26.83;39.59;99809.91;5093291;28;20425;-79
2021/08/22 07:45:45;;;;;;;7.45;6.05;;;;;;;26.44;39.30;99739.38;5092861;28;20369;-79
2021/08/22 07:48:11;;;;;;;11.18;5.53;;;;;;;26.60;38.91;99749.03;5092841;28;20035;-79
2021/08/22 07:50:36;;;;;;;8.10;6.18;;;;;;;27.03;38.94;99798.19;5092760;28;20446;-78
2021/08/22 07:53:02;;;;;;;6.85;6.15;;;;;;;27.00;38.58;99771.63;5092648;28;20016;-79
2021/08/22 07:55:28;;;;;;;6.65;5.50;;;;;;;26.97;37.62;99758.63;5092643;28;20069;-79
2021/08/22 07:57:53;;;;;;;8.02;5.82;;;;;;;27.26;37.72;99802.09;5092657;28;20107;-80
2021/08/22 08:00:19;;;;;;;7.55;5.70;;;;;;;27.46;37.43;99807.38;5092590;28;20024;-80
2021/08/22 08:02:44;;;;;;;7.97;7.10;;;;;;;27.57;36.72;99805.41;5074527;28;20615;-79
2021/08/22 08:05:10;;;;;;;7.20;5.25;;;;;;;27.31;36.60;99766.00;5092839;28;20027;-78
2021/08/22 08:07:36;;;;;;;8.90;7.35;;;;;;;27.72;36.45;99805.31;5092654;28;20028;-78
2021/08/22 08:10:02;;;;;;;5.93;5.00;;;;;;;27.46;35.54;99752.31;5092461;28;20012;-79
2021/08/22 08:12:27;;;;;;;5.78;5.05;;;;;;;27.44;35.56;99743.66;5092310;28;20027;-80
2021/08/22 08:14:53;;;;;;;7.85;7.05;;;;;;;27.92;35.54;99790.75;5092368;28;20024;-79
2021/08/22 08:17:19;;;;;;;5.85;5.25;;;;;;;27.70;34.89;99755.16;5092265;28;20054;-79
2021/08/22 08:19:44;;;;;;;8.80;7.80;;;;;;;28.05;35.41;99790.06;5092176;28;20113;-79
2021/08/22 08:22:10;;;;;;;6.70;5.60;;;;;;;27.76;35.03;99737.72;5092162;28;20522;-79
2021/08/22 08:24:36;;;;;;;5.53;5.03;;;;;;;27.81;34.95;99724.09;5092253;28;20027;-75
2021/08/22 08:27:01;;;;;;;10.25;6.72;;;;;;;28.24;34.93;99795.63;5092088;28;20028;-75
2021/08/22 08:29:27;;;;;;;6.95;6.32;;;;;;;28.31;34.63;99789.84;5092255;28;20503;-74
2021/08/22 08:31:52;;;;;;;7.68;6.13;;;;;;;28.17;34.49;99748.94;5074026;28;20020;-74
2021/08/22 08:34:18;;;;;;;6.85;5.05;;;;;;;28.32;34.09;99750.75;5091881;28;20081;-75
2021/08/22 08:36:43;;;;;;;8.07;7.28;;;;;;;28.50;34.07;99762.75;5091863;28;20020;-74
2021/08/22 08:39:09;;;;;;;5.10;4.70;;;;;;;28.66;33.46;99772.31;5073597;28;20031;-71
2021/08/22 08:41:34;;;;;;;5.97;4.60;;;;;;;28.82;33.22;99783.78;5091870;28;20105;-75
2021/08/22 08:43:59;;;;;;;6.60;5.80;;;;;;;28.91;33.53;99791.03;5091868;28;20012;-75
2021/08/22 08:46:28;;;;;;;6.78;5.82;;;;;;;29.01;32.46;99790.91;5091828;28;20489;-73
2021/08/22 08:49:23;;;;;;;5.22;4.82;;;;;;;28.99;31.82;99774.09;5091907;28;20046;-75
2021/08/22 08:51:49;;;;;;;4.65;4.25;;;;;;;29.10;31.98;99775.56;5073433;28;20031;-74
2021/08/22 08:54:29;;;;;;;7.57;6.13;;;;;;;29.09;31.92;99751.38;5091510;28;20020;-75
2021/08/22 08:56:56;;;;;;;10.13;6.43;;;;;;;28.93;31.73;99720.88;5091371;28;20443;-74
2021/08/22 08:59:22;;;;;;;7.10;4.38;;;;;;;29.21;31.45;99731.88;5091443;28;20035;-72
2021/08/22 09:01:47;;;;;;;4.57;4.20;;;;;;;29.31;31.53;99746.13;5091536;28;20028;-74
2021/08/22 09:04:28;;;;;;;5.30;4.18;;;;;;;29.62;30.88;99776.38;5073342;28;20076;-74
2021/08/22 09:07:12;;;;;;;;;;;;;;;29.62;31.60;99764.69;5091721;28;20028;-71
2021/08/22 09:10:09;;;;;;;6.22;4.72;;;;;;;29.85;31.07;99768.41;5073066;28;20000;-74
2021/08/22 09:13:11;;;;;;;5.35;4.72;;;;;;;30.07;30.26;99765.84;5091589;28;20024;-73
2021/08/22 09:16:14;;;;;;;5.05;4.00;;;;;;;30.26;30.37;99763.00;5091444;28;20496;-74
2021/08/22 09:19:36;;;;;;;6.55;5.13;;;;;;;30.45;30.18;99758.25;5091375;28;20024;-74
2021/08/22 09:22:17;;;;;;;6.20;4.18;;;;;;;30.64;29.77;99755.47;5091181;28;20035;-74
2021/08/22 09:25:20;;;;;;;5.28;4.78;;;;;;;30.91;29.74;99755.41;5094205;28;20567;-73
2021/08/22 09:28:22;;;;;;;6.47;5.05;;;;;;;31.17;29.04;99744.72;5098144;28;20078;-73
2021/08/22 09:31:06;;;;;;;6.57;5.13;;;;;;;31.29;28.74;99746.94;5098112;28;20031;-74
2021/08/22 09:34:08;;;;;;;6.68;5.40;;;;;;;31.53;28.66;99732.94;5098070;28;20063;-74
2021/08/22 09:36:52;;;;;;;6.03;5.38;;;;;;;31.73;28.73;99737.09;5098230;28;20059;-74
2021/08/22 09:39:50;;;;;;;7.10;5.68;;;;;;;31.98;28.23;99735.63;5079714;28;20028;-74
2021/08/22 09:42:53;;;;;;;7.20;4.88;;;;;;;32.20;27.51;99735.56;5087246;28;20095;-74
2021/08/22 09:45:34;;;;;;;5.55;4.72;;;;;;;32.37;27.68;99737.56;5097919;28;20035;-74
2021/08/22 09:48:27;;;;;;;7.65;5.72;;;;;;;32.52;27.43;99726.97;5097721;28;20044;-73
2021/08/22 09:51:07;;;;;;;6.95;6.25;;;;;;;32.73;27.10;99740.06;5097494;28;20023;-74
2021/08/22 09:54:11;;;;;;;18.95;16.45;;;;;;;32.72;27.15;99731.06;5096292;28;20089;-73
2021/08/22 09:57:14;;;;;;;7.38;4.82;;;;;;;32.78;26.50;99743.47;5097534;28;20048;-74
2021/08/22 10:00:17;;;;;;;10.73;9.60;;;;;;;32.73;26.55;99737.34;5097523;28;20381;-75
2021/08/22 10:02:48;;;;;;;13.18;11.90;;;;;;;32.67;26.73;99735.84;5097874;28;20031;-74
2021/08/22 10:05:19;;;;;;;;;;;;;;;32.85;26.62;99730.13;5096980;28;20031;-74
2021/08/22 10:07:44;;;;;;;5.20;4.70;;;;;;;32.99;26.39;99737.38;5097648;28;20293;-74
2021/08/22 10:10:14;;;;;;;7.93;6.70;;;;;;;33.14;26.35;99732.22;5098043;28;20035;-75
2021/08/22 10:12:40;;;;;;;5.82;4.78;;;;;;;33.39;25.82;99738.00;5098053;28;20020;-75
2021/08/22 10:15:07;;;;;;;8.05;6.00;;;;;;;33.24;26.03;99691.97;5097747;28;20088;-73
2021/08/22 10:17:33;;;;;;;5.10;4.15;;;;;;;33.62;25.58;99717.53;5097905;28;20157;-75
2021/08/22 10:19:58;;;;;;;6.15;4.32;;;;;;;33.87;25.40;99737.75;5097555;28;20443;-73
2021/08/22 10:22:30;;;;;;;6.00;4.90;;;;;;;33.92;25.02;99729.34;5097469;28;20038;-75
2021/08/22 10:24:57;;;;;;;5.78;5.10;;;;;;;33.98;24.96;99708.06;5097408;28;20020;-79
2021/08/22 10:27:36;;;;;;;4.30;3.90;;;;;;;34.27;24.00;99724.53;5097496;28;20485;-78
2021/08/22 10:30:04;;;;;;;7.20;4.63;;;;;;;34.40;24.02;99723.53;5097610;28;20047;-79
2021/08/22 10:32:33;;;;;;;5.93;4.15;;;;;;;34.52;23.88;99725.53;5097493;28;20408;-79
2021/08/22 10:35:11;;;;;;;4.90;4.47;;;;;;;34.51;23.44;99721.19;5096065;28;20024;-78
2021/08/22 10:37:38;;;;;;;5.30;4.38;;;;;;;34.41;23.69;99684.00;5093187;28;20020;-80
2021/08/22 10:40:25;;;;;;;4.70;4.20;;;;;;;34.57;23.45;99716.31;5094237;28;20027;-78
2021/08/22 10:42:56;;;;;;;5.97;4.57;;;;;;;34.61;23.05;99711.75;5093834;28;20028;-78
2021/08/22 10:45:50;;;;;;;8.52;4.95;;;;;;;34.64;23.52;99706.41;5093957;28;20073;-79
2021/08/22 10:48:24;;;;;;;5.65;4.70;;;;;;;34.65;22.96;99710.75;5091781;28;20374;-78
2021/08/22 10:50:59;;;;;;;5.57;4.53;;;;;;;34.76;22.84;99699.38;5094037;28;20024;-79
2021/08/22 10:53:34;;;;;;;5.30;4.40;;;;;;;34.94;23.03;99701.72;5093785;28;20572;-79
2021/08/22 10:56:22;;;;;;;6.97;4.97;;;;;;;35.13;22.70;99695.72;5093816;28;20028;-79
2021/08/22 10:58:57;;;;;;;5.18;4.68;;;;;;;35.15;22.37;99696.19;5093619;28;20542;-79
2021/08/22 11:01:24;;;;;;;7.97;4.40;;;;;;;35.21;22.62;99699.53;5093607;28;20020;-79
2021/08/22 11:04:08;;;;;;;8.60;5.22;;;;;;;35.37;22.58;99707.94;5093342;28;20458;-76
2021/08/22 11:06:51;;;;;;;5.78;4.65;;;;;;;35.55;21.87;99703.88;5093769;28;20081;-78
2021/08/22 11:09:52;;;;;;;4.88;3.78;;;;;;;35.64;21.91;99701.81;5093735;28;20020;-79
2021/08/22 11:12:25;;;;;;;7.55;4.40;;;;;;;35.34;21.91;99654.50;5092888;28;20563;-78
2021/08/22 11:14:51;;;;;;;4.78;3.92;;;;;;;35.28;21.69;99642.13;5093306;28;20051;-78
2021/08/22 11:17:17;;;;;;;5.32;4.20;;;;;;;35.53;21.84;99645.72;5093411;28;20522;-79
2021/08/22 11:19:42;;;;;;;5.07;3.97;;;;;;;35.93;21.16;99687.94;5093367;28;20385;-78
2021/08/22 11:22:26;;;;;;;5.38;4.22;;;;;;;35.91;21.31;99648.19;5093345;28;20016;-79
2021/08/22 11:24:54;;;;;;;4.43;4.03;;;;;;;36.22;21.18;99686.06;5093334;28;20024;-78
2021/08/22 11:27:21;;;;;;;5.15;4.50;;;;;;;36.15;20.81;99672.91;5093329;28;20102;-78
2021/08/22 11:29:56;;;;;;;4.93;4.30;;;;;;;36.00;20.45;99681.06;5093295;28;20016;-78
2021/08/22 11:32:22;;;;;;;5.30;3.85;;;;;;;35.70;20.88;99634.56;5091929;28;20016;-78
2021/08/22 11:34:47;;;;;;;4.00;3.60;;;;;;;35.93;21.03;99674.19;5093185;28;20043;-76
2021/08/22 11:37:17;;;;;;;4.78;3.80;;;;;;;35.93;20.56;99654.94;5093013;28;20091;-77
2021/08/22 11:39:42;;;;;;;4.35;3.95;;;;;;;36.04;21.05;99668.22;5092852;28;20464;-78
2021/08/22 11:42:08;;;;;;;8.00;3.72;;;;;;;36.00;21.13;99670.88;5092985;28;20024;-78
2021/08/22 11:44:34;;;;;;;5.28;4.78;;;;;;;36.22;20.90;99666.84;5092983;28;20024;-76